sensor_id;sensor_type;location;lat;lon;timestamp;pressure;altitude;pressure_sealevel;temperature;humidity
63500;BME280;49654;51.142;14.924;2023-02-11T00:00:15;100742.94;;;1.25;70.42
63500;BME280;49654;51.142;14.924;2023-02-11T00:02:42;100738.13;;;1.19;70.57
63500;BME280;49654;51.142;14.924;2023-02-11T00:05:09;100732.84;;;1.22;70.33
63500;BME280;49654;51.142;14.924;2023-02-11T00:07:38;100731.34;;;1.18;70.72
63500;BME280;49654;51.142;14.924;2023-02-11T00:10:05;100735.63;;;1.18;70.44
63500;BME280;49654;51.142;14.924;2023-02-11T00:12:33;100731.25;;;1.20;70.54
63500;BME280;49654;51.142;14.924;2023-02-11T00:15:00;100728.91;;;1.33;70.29
63500;BME280;49654;51.142;14.924;2023-02-11T00:17:27;100729.09;;;1.30;70.22
63500;BME280;49654;51.142;14.924;2023-02-11T00:19:54;100738.78;;;1.40;69.65
63500;BME280;49654;51.142;14.924;2023-02-11T00:22:21;100735.72;;;1.34;69.67
63500;BME280;49654;51.142;14.924;2023-02-11T00:24:49;100733.44;;;1.28;69.99
63500;BME280;49654;51.142;14.924;2023-02-11T00:27:16;100730.75;;;1.31;70.01
63500;BME280;49654;51.142;14.924;2023-02-11T00:29:43;100717.94;;;1.31;70.01
63500;BME280;49654;51.142;14.924;2023-02-11T00:32:10;100718.09;;;1.28;69.87
63500;BME280;49654;51.142;14.924;2023-02-11T00:34:37;100713.78;;;1.28;70.16
63500;BME280;49654;51.142;14.924;2023-02-11T00:37:04;100698.09;;;1.18;70.33
63500;BME280;49654;51.142;14.924;2023-02-11T00:39:31;100703.50;;;1.30;69.88
63500;BME280;49654;51.142;14.924;2023-02-11T00:41:59;100688.38;;;1.25;69.97
63500;BME280;49654;51.142;14.924;2023-02-11T00:44:26;100704.19;;;1.33;69.80
63500;BME280;49654;51.142;14.924;2023-02-11T00:46:53;100695.88;;;1.28;70.21
63500;BME280;49654;51.142;14.924;2023-02-11T00:49:20;100696.72;;;1.29;69.63
63500;BME280;49654;51.142;14.924;2023-02-11T00:51:47;100694.75;;;1.34;69.64
63500;BME280;49654;51.142;14.924;2023-02-11T00:54:14;100688.50;;;1.39;69.26
63500;BME280;49654;51.142;14.924;2023-02-11T00:56:41;100689.31;;;1.40;69.23
63500;BME280;49654;51.142;14.924;2023-02-11T00:59:09;100684.78;;;1.45;68.79
63500;BME280;49654;51.142;14.924;2023-02-11T01:01:36;100688.78;;;1.50;68.78
63500;BME280;49654;51.142;14.924;2023-02-11T01:04:10;100686.72;;;1.57;68.45
63500;BME280;49654;51.142;14.924;2023-02-11T01:06:37;100684.28;;;1.38;69.07
63500;BME280;49654;51.142;14.924;2023-02-11T01:09:04;100681.63;;;1.40;69.19
63500;BME280;49654;51.142;14.924;2023-02-11T01:11:31;100666.22;;;1.41;69.20
63500;BME280;49654;51.142;14.924;2023-02-11T01:13:58;100662.41;;;1.48;68.75
63500;BME280;49654;51.142;14.924;2023-02-11T01:16:27;100661.25;;;1.38;68.93
63500;BME280;49654;51.142;14.924;2023-02-11T01:18:53;100653.72;;;1.35;69.63
63500;BME280;49654;51.142;14.924;2023-02-11T01:21:20;100641.09;;;1.48;69.03
63500;BME280;49654;51.142;14.924;2023-02-11T01:23:47;100640.78;;;1.54;68.47
63500;BME280;49654;51.142;14.924;2023-02-11T01:26:14;100637.63;;;1.49;68.54
63500;BME280;49654;51.142;14.924;2023-02-11T01:28:41;100639.25;;;1.67;68.16
63500;BME280;49654;51.142;14.924;2023-02-11T01:31:08;100652.69;;;1.55;68.45
63500;BME280;49654;51.142;14.924;2023-02-11T01:33:36;100633.03;;;1.56;68.26
63500;BME280;49654;51.142;14.924;2023-02-11T01:36:05;100623.53;;;1.58;68.02
63500;BME280;49654;51.142;14.924;2023-02-11T01:38:32;100636.25;;;1.59;68.17
63500;BME280;49654;51.142;14.924;2023-02-11T01:41:02;100649.75;;;1.45;68.39
63500;BME280;49654;51.142;14.924;2023-02-11T01:43:31;100651.19;;;1.51;68.61
63500;BME280;49654;51.142;14.924;2023-02-11T01:46:03;100646.22;;;1.48;68.70
63500;BME280;49654;51.142;14.924;2023-02-11T01:48:42;100654.16;;;1.43;68.71
63500;BME280;49654;51.142;14.924;2023-02-11T01:51:13;100650.72;;;1.60;68.36
63500;BME280;49654;51.142;14.924;2023-02-11T01:53:42;100636.41;;;1.56;68.04
63500;BME280;49654;51.142;14.924;2023-02-11T01:56:29;100648.69;;;1.49;68.17
63500;BME280;49654;51.142;14.924;2023-02-11T01:59:17;100650.19;;;1.54;68.49
63500;BME280;49654;51.142;14.924;2023-02-11T02:01:48;100664.16;;;1.48;68.45
63500;BME280;49654;51.142;14.924;2023-02-11T02:04:18;100656.38;;;1.34;68.99
63500;BME280;49654;51.142;14.924;2023-02-11T02:06:49;100643.56;;;1.34;68.96
63500;BME280;49654;51.142;14.924;2023-02-11T02:09:21;100631.34;;;1.39;69.28
63500;BME280;49654;51.142;14.924;2023-02-11T02:11:49;100621.94;;;1.39;69.09
63500;BME280;49654;51.142;14.924;2023-02-11T02:14:17;100626.31;;;1.37;69.40
63500;BME280;49654;51.142;14.924;2023-02-11T02:16:44;100618.16;;;1.46;69.00
63500;BME280;49654;51.142;14.924;2023-02-11T02:19:29;100607.44;;;1.56;68.74
63500;BME280;49654;51.142;14.924;2023-02-11T02:22:27;100603.72;;;1.61;68.44
63500;BME280;49654;51.142;14.924;2023-02-11T02:25:18;100602.63;;;1.65;68.45
63500;BME280;49654;51.142;14.924;2023-02-11T02:27:55;100606.94;;;1.65;68.46
63500;BME280;49654;51.142;14.924;2023-02-11T02:30:47;100608.56;;;1.66;68.52
63500;BME280;49654;51.142;14.924;2023-02-11T02:33:41;100596.69;;;1.65;68.43
63500;BME280;49654;51.142;14.924;2023-02-11T02:36:18;100589.75;;;1.67;68.42
63500;BME280;49654;51.142;14.924;2023-02-11T02:38:52;100590.09;;;1.77;68.13
63500;BME280;49654;51.142;14.924;2023-02-11T02:41:26;100595.72;;;1.67;68.34
63500;BME280;49654;51.142;14.924;2023-02-11T02:43:54;100579.84;;;1.61;68.74
63500;BME280;49654;51.142;14.924;2023-02-11T02:46:23;100577.28;;;1.61;69.12
63500;BME280;49654;51.142;14.924;2023-02-11T02:48:53;100575.53;;;1.45;69.29
63500;BME280;49654;51.142;14.924;2023-02-11T02:51:41;100574.22;;;1.54;69.07
63500;BME280;49654;51.142;14.924;2023-02-11T02:54:47;100547.13;;;1.34;69.64
63500;BME280;49654;51.142;14.924;2023-02-11T02:57:28;100559.69;;;1.55;69.31
63500;BME280;49654;51.142;14.924;2023-02-11T03:00:05;100548.03;;;1.49;69.48
63500;BME280;49654;51.142;14.924;2023-02-11T03:02:42;100542.56;;;1.71;68.68
63500;BME280;49654;51.142;14.924;2023-02-11T03:05:17;100538.66;;;1.80;68.50
63500;BME280;49654;51.142;14.924;2023-02-11T03:07:50;100540.00;;;1.87;68.42
63500;BME280;49654;51.142;14.924;2023-02-11T03:10:20;100537.25;;;2.06;67.59
63500;BME280;49654;51.142;14.924;2023-02-11T03:12:49;100534.31;;;2.12;67.47
63500;BME280;49654;51.142;14.924;2023-02-11T03:15:18;100523.31;;;2.10;67.46
63500;BME280;49654;51.142;14.924;2023-02-11T03:17:49;100502.69;;;1.97;67.11
63500;BME280;49654;51.142;14.924;2023-02-11T03:20:20;100510.88;;;2.04;67.18
63500;BME280;49654;51.142;14.924;2023-02-11T03:22:52;100514.94;;;2.22;66.81
63500;BME280;49654;51.142;14.924;2023-02-11T03:25:25;100506.97;;;2.12;67.26
63500;BME280;49654;51.142;14.924;2023-02-11T03:27:58;100510.50;;;2.10;67.15
63500;BME280;49654;51.142;14.924;2023-02-11T03:30:33;100495.63;;;2.16;67.04
63500;BME280;49654;51.142;14.924;2023-02-11T03:33:07;100475.22;;;2.15;66.92
63500;BME280;49654;51.142;14.924;2023-02-11T03:35:42;100502.34;;;2.33;66.70
63500;BME280;49654;51.142;14.924;2023-02-11T03:38:16;100497.09;;;2.35;66.57
63500;BME280;49654;51.142;14.924;2023-02-11T03:40:46;100508.56;;;2.29;66.68
63500;BME280;49654;51.142;14.924;2023-02-11T03:43:15;100504.09;;;2.33;66.32
63500;BME280;49654;51.142;14.924;2023-02-11T03:45:44;100498.78;;;2.36;66.91
63500;BME280;49654;51.142;14.924;2023-02-11T03:48:15;100496.34;;;2.48;66.15
63500;BME280;49654;51.142;14.924;2023-02-11T03:50:47;100499.13;;;2.44;66.10
63500;BME280;49654;51.142;14.924;2023-02-11T03:53:14;100503.81;;;2.51;66.39
63500;BME280;49654;51.142;14.924;2023-02-11T03:55:42;100506.59;;;2.63;66.35
63500;BME280;49654;51.142;14.924;2023-02-11T03:58:11;100495.31;;;2.65;65.83
63500;BME280;49654;51.142;14.924;2023-02-11T04:00:40;100496.78;;;2.69;66.13
63500;BME280;49654;51.142;14.924;2023-02-11T04:03:07;100498.06;;;2.76;65.63
63500;BME280;49654;51.142;14.924;2023-02-11T04:05:35;100486.63;;;2.68;66.40
63500;BME280;49654;51.142;14.924;2023-02-11T04:08:04;100486.72;;;2.81;65.70
63500;BME280;49654;51.142;14.924;2023-02-11T04:10:31;100492.00;;;2.78;65.90
63500;BME280;49654;51.142;14.924;2023-02-11T04:12:58;100470.22;;;2.85;66.05
63500;BME280;49654;51.142;14.924;2023-02-11T04:15:25;100455.63;;;2.85;66.38
63500;BME280;49654;51.142;14.924;2023-02-11T04:17:52;100455.34;;;3.04;65.82
63500;BME280;49654;51.142;14.924;2023-02-11T04:20:19;100463.59;;;3.09;65.61
63500;BME280;49654;51.142;14.924;2023-02-11T04:22:46;100455.25;;;3.06;65.56
63500;BME280;49654;51.142;14.924;2023-02-11T04:25:14;100460.88;;;3.25;65.59
63500;BME280;49654;51.142;14.924;2023-02-11T04:27:41;100467.16;;;3.34;65.12
63500;BME280;49654;51.142;14.924;2023-02-11T04:30:09;100449.06;;;3.22;65.24
63500;BME280;49654;51.142;14.924;2023-02-11T04:32:36;100450.13;;;3.33;65.30
63500;BME280;49654;51.142;14.924;2023-02-11T04:35:04;100461.44;;;3.57;65.19
63500;BME280;49654;51.142;14.924;2023-02-11T04:37:31;100472.03;;;3.38;64.77
63500;BME280;49654;51.142;14.924;2023-02-11T04:39:58;100474.84;;;3.48;64.93
63500;BME280;49654;51.142;14.924;2023-02-11T04:42:26;100476.59;;;3.47;64.42
63500;BME280;49654;51.142;14.924;2023-02-11T04:44:53;100477.41;;;3.48;64.90
63500;BME280;49654;51.142;14.924;2023-02-11T04:47:20;100457.25;;;3.42;65.35
63500;BME280;49654;51.142;14.924;2023-02-11T04:49:47;100460.91;;;3.52;65.60
63500;BME280;49654;51.142;14.924;2023-02-11T04:52:14;100468.25;;;3.44;66.66
63500;BME280;49654;51.142;14.924;2023-02-11T04:54:41;100460.97;;;3.50;66.08
63500;BME280;49654;51.142;14.924;2023-02-11T04:57:08;100469.41;;;3.53;66.69
63500;BME280;49654;51.142;14.924;2023-02-11T04:59:36;100465.28;;;3.50;67.04
63500;BME280;49654;51.142;14.924;2023-02-11T05:02:03;100458.97;;;3.56;66.91
63500;BME280;49654;51.142;14.924;2023-02-11T05:04:30;100456.44;;;3.68;66.91
63500;BME280;49654;51.142;14.924;2023-02-11T05:06:56;100445.63;;;3.76;66.71
63500;BME280;49654;51.142;14.924;2023-02-11T05:09:23;100454.09;;;3.78;66.99
63500;BME280;49654;51.142;14.924;2023-02-11T05:11:50;100446.06;;;3.83;66.99
63500;BME280;49654;51.142;14.924;2023-02-11T05:14:18;100454.97;;;3.64;68.37
63500;BME280;49654;51.142;14.924;2023-02-11T05:16:46;100455.28;;;3.72;68.68
63500;BME280;49654;51.142;14.924;2023-02-11T05:19:13;100454.28;;;3.75;68.52
63500;BME280;49654;51.142;14.924;2023-02-11T05:21:40;100453.50;;;3.87;68.69
63500;BME280;49654;51.142;14.924;2023-02-11T05:24:07;100457.19;;;3.96;67.98
63500;BME280;49654;51.142;14.924;2023-02-11T05:26:34;100457.09;;;3.97;68.37
63500;BME280;49654;51.142;14.924;2023-02-11T05:29:01;100447.63;;;3.98;68.73
63500;BME280;49654;51.142;14.924;2023-02-11T05:31:28;100446.81;;;4.10;68.54
63500;BME280;49654;51.142;14.924;2023-02-11T05:33:56;100439.94;;;4.23;68.25
63500;BME280;49654;51.142;14.924;2023-02-11T05:36:23;100443.63;;;4.32;68.45
63500;BME280;49654;51.142;14.924;2023-02-11T05:38:50;100429.97;;;4.32;68.39
63500;BME280;49654;51.142;14.924;2023-02-11T05:41:16;100446.53;;;4.40;68.18
63500;BME280;49654;51.142;14.924;2023-02-11T05:43:43;100443.63;;;4.32;69.11
63500;BME280;49654;51.142;14.924;2023-02-11T05:46:10;100446.63;;;4.39;68.70
63500;BME280;49654;51.142;14.924;2023-02-11T05:48:37;100420.50;;;4.32;69.32
63500;BME280;49654;51.142;14.924;2023-02-11T05:51:05;100423.28;;;4.42;69.28
63500;BME280;49654;51.142;14.924;2023-02-11T05:53:32;100428.81;;;4.48;69.44
63500;BME280;49654;51.142;14.924;2023-02-11T05:55:59;100427.88;;;4.49;69.25
63500;BME280;49654;51.142;14.924;2023-02-11T05:58:27;100421.44;;;4.44;69.18
63500;BME280;49654;51.142;14.924;2023-02-11T06:00:54;100424.50;;;4.49;69.56
63500;BME280;49654;51.142;14.924;2023-02-11T06:03:21;100429.88;;;4.46;69.59
63500;BME280;49654;51.142;14.924;2023-02-11T06:05:47;100426.75;;;4.53;69.35
63500;BME280;49654;51.142;14.924;2023-02-11T06:08:16;100418.97;;;4.42;70.20
63500;BME280;49654;51.142;14.924;2023-02-11T06:10:43;100429.06;;;4.45;70.13
63500;BME280;49654;51.142;14.924;2023-02-11T06:13:10;100424.91;;;4.56;70.19
63500;BME280;49654;51.142;14.924;2023-02-11T06:15:37;100421.22;;;4.47;70.40
63500;BME280;49654;51.142;14.924;2023-02-11T06:18:06;100419.34;;;4.49;70.93
63500;BME280;49654;51.142;14.924;2023-02-11T06:20:33;100424.50;;;4.49;71.14
63500;BME280;49654;51.142;14.924;2023-02-11T06:23:00;100419.16;;;4.52;71.22
63500;BME280;49654;51.142;14.924;2023-02-11T06:25:28;100411.75;;;4.47;71.20
63500;BME280;49654;51.142;14.924;2023-02-11T06:27:55;100418.16;;;4.42;73.30
63500;BME280;49654;51.142;14.924;2023-02-11T06:30:22;100417.09;;;4.44;73.86
63500;BME280;49654;51.142;14.924;2023-02-11T06:32:49;100415.03;;;4.37;74.25
63500;BME280;49654;51.142;14.924;2023-02-11T06:35:16;100425.75;;;4.31;74.97
63500;BME280;49654;51.142;14.924;2023-02-11T06:37:43;100416.28;;;4.44;75.01
63500;BME280;49654;51.142;14.924;2023-02-11T06:40:12;100414.63;;;4.43;75.36
63500;BME280;49654;51.142;14.924;2023-02-11T06:42:40;100407.56;;;4.34;75.93
63500;BME280;49654;51.142;14.924;2023-02-11T06:45:08;100399.34;;;4.29;76.72
63500;BME280;49654;51.142;14.924;2023-02-11T06:47:35;100401.06;;;4.15;77.49
63500;BME280;49654;51.142;14.924;2023-02-11T06:50:03;100404.16;;;4.08;78.04
63500;BME280;49654;51.142;14.924;2023-02-11T06:52:31;100384.41;;;3.95;78.72
63500;BME280;49654;51.142;14.924;2023-02-11T06:54:58;100397.59;;;4.04;79.03
63500;BME280;49654;51.142;14.924;2023-02-11T06:57:25;100409.31;;;4.08;79.30
63500;BME280;49654;51.142;14.924;2023-02-11T06:59:53;100398.78;;;4.23;78.75
63500;BME280;49654;51.142;14.924;2023-02-11T07:02:20;100390.38;;;4.21;78.71
63500;BME280;49654;51.142;14.924;2023-02-11T07:04:48;100403.44;;;4.18;78.76
63500;BME280;49654;51.142;14.924;2023-02-11T07:07:15;100393.06;;;4.20;78.72
63500;BME280;49654;51.142;14.924;2023-02-11T07:09:42;100387.00;;;4.08;79.26
63500;BME280;49654;51.142;14.924;2023-02-11T07:12:09;100397.16;;;4.10;79.74
63500;BME280;49654;51.142;14.924;2023-02-11T07:14:36;100402.63;;;4.18;79.30
63500;BME280;49654;51.142;14.924;2023-02-11T07:17:04;100403.75;;;4.26;79.03
63500;BME280;49654;51.142;14.924;2023-02-11T07:19:31;100406.72;;;4.33;79.14
63500;BME280;49654;51.142;14.924;2023-02-11T07:21:58;100412.78;;;4.32;79.04
63500;BME280;49654;51.142;14.924;2023-02-11T07:24:25;100407.31;;;4.49;78.17
63500;BME280;49654;51.142;14.924;2023-02-11T07:26:52;100413.31;;;4.37;78.54
63500;BME280;49654;51.142;14.924;2023-02-11T07:29:19;100408.06;;;4.39;78.61
63500;BME280;49654;51.142;14.924;2023-02-11T07:31:45;100400.66;;;4.34;78.25
63500;BME280;49654;51.142;14.924;2023-02-11T07:34:14;100403.41;;;4.44;78.30
63500;BME280;49654;51.142;14.924;2023-02-11T07:36:41;100396.50;;;4.57;77.88
63500;BME280;49654;51.142;14.924;2023-02-11T07:39:09;100397.53;;;4.67;76.57
63500;BME280;49654;51.142;14.924;2023-02-11T07:41:37;100394.03;;;4.68;76.42
63500;BME280;49654;51.142;14.924;2023-02-11T07:44:04;100404.31;;;4.68;76.68
63500;BME280;49654;51.142;14.924;2023-02-11T07:46:31;100410.16;;;4.70;76.63
63500;BME280;49654;51.142;14.924;2023-02-11T07:48:59;100408.03;;;4.64;76.25
63500;BME280;49654;51.142;14.924;2023-02-11T07:51:28;100397.63;;;4.53;76.55
63500;BME280;49654;51.142;14.924;2023-02-11T07:53:57;100403.28;;;4.58;77.07
63500;BME280;49654;51.142;14.924;2023-02-11T07:56:24;100407.72;;;4.56;77.12
63500;BME280;49654;51.142;14.924;2023-02-11T07:58:52;100410.41;;;4.67;76.47
63500;BME280;49654;51.142;14.924;2023-02-11T08:01:21;100405.94;;;4.69;76.43
63500;BME280;49654;51.142;14.924;2023-02-11T08:03:50;100411.31;;;4.66;76.72
63500;BME280;49654;51.142;14.924;2023-02-11T08:06:19;100414.59;;;4.68;77.08
63500;BME280;49654;51.142;14.924;2023-02-11T08:08:48;100427.44;;;4.81;76.83
63500;BME280;49654;51.142;14.924;2023-02-11T08:11:17;100431.66;;;4.82;76.68
63500;BME280;49654;51.142;14.924;2023-02-11T08:13:44;100441.75;;;4.85;76.45
63500;BME280;49654;51.142;14.924;2023-02-11T08:16:17;100426.13;;;4.75;76.03
63500;BME280;49654;51.142;14.924;2023-02-11T08:18:45;100424.03;;;4.93;76.20
63500;BME280;49654;51.142;14.924;2023-02-11T08:21:12;100425.78;;;4.93;75.89
63500;BME280;49654;51.142;14.924;2023-02-11T08:23:39;100422.34;;;4.92;76.13
63500;BME280;49654;51.142;14.924;2023-02-11T08:26:09;100411.25;;;4.92;76.30
63500;BME280;49654;51.142;14.924;2023-02-11T08:28:38;100413.97;;;4.77;77.58
63500;BME280;49654;51.142;14.924;2023-02-11T08:31:06;100406.06;;;4.68;78.83
63500;BME280;49654;51.142;14.924;2023-02-11T08:33:34;100406.78;;;4.57;80.27
63500;BME280;49654;51.142;14.924;2023-02-11T08:36:06;100414.31;;;4.47;81.39
63500;BME280;49654;51.142;14.924;2023-02-11T08:38:33;100407.44;;;4.35;82.07
63500;BME280;49654;51.142;14.924;2023-02-11T08:41:00;100402.50;;;4.32;82.35
63500;BME280;49654;51.142;14.924;2023-02-11T08:43:28;100399.84;;;4.34;82.31
63500;BME280;49654;51.142;14.924;2023-02-11T08:45:55;100403.03;;;4.37;82.18
63500;BME280;49654;51.142;14.924;2023-02-11T08:48:22;100414.13;;;4.50;82.45
63500;BME280;49654;51.142;14.924;2023-02-11T08:50:49;100390.66;;;4.55;81.40
63500;BME280;49654;51.142;14.924;2023-02-11T08:53:16;100407.41;;;4.61;81.57
63500;BME280;49654;51.142;14.924;2023-02-11T08:55:47;100410.28;;;4.69;80.92
63500;BME280;49654;51.142;14.924;2023-02-11T08:58:14;100413.44;;;4.85;79.77
63500;BME280;49654;51.142;14.924;2023-02-11T09:00:42;100401.91;;;4.78;79.65
63500;BME280;49654;51.142;14.924;2023-02-11T09:03:10;100421.56;;;4.79;80.08
63500;BME280;49654;51.142;14.924;2023-02-11T09:05:40;100418.25;;;4.90;79.72
63500;BME280;49654;51.142;14.924;2023-02-11T09:08:06;100419.06;;;4.90;79.13
63500;BME280;49654;51.142;14.924;2023-02-11T09:10:33;100421.53;;;4.92;79.52
63500;BME280;49654;51.142;14.924;2023-02-11T09:13:00;100400.81;;;4.69;79.34
63500;BME280;49654;51.142;14.924;2023-02-11T09:15:27;100426.28;;;4.98;78.78
63500;BME280;49654;51.142;14.924;2023-02-11T09:17:56;100424.22;;;5.27;77.65
63500;BME280;49654;51.142;14.924;2023-02-11T09:20:23;100429.34;;;5.51;76.10
63500;BME280;49654;51.142;14.924;2023-02-11T09:22:51;100401.91;;;5.15;76.82
63500;BME280;49654;51.142;14.924;2023-02-11T09:25:18;100409.31;;;5.19;76.70
63500;BME280;49654;51.142;14.924;2023-02-11T09:27:45;100383.97;;;5.13;77.25
63500;BME280;49654;51.142;14.924;2023-02-11T09:30:13;100410.19;;;5.31;76.98
63500;BME280;49654;51.142;14.924;2023-02-11T09:32:39;100388.25;;;5.25;76.68
63500;BME280;49654;51.142;14.924;2023-02-11T09:35:08;100405.47;;;5.49;76.32
63500;BME280;49654;51.142;14.924;2023-02-11T09:37:35;100397.25;;;5.44;76.18
63500;BME280;49654;51.142;14.924;2023-02-11T09:40:02;100390.47;;;5.54;75.79
63500;BME280;49654;51.142;14.924;2023-02-11T09:42:43;100369.03;;;5.53;75.25
63500;BME280;49654;51.142;14.924;2023-02-11T09:45:14;100376.66;;;5.55;75.43
63500;BME280;49654;51.142;14.924;2023-02-11T09:47:46;100404.50;;;5.74;75.04
63500;BME280;49654;51.142;14.924;2023-02-11T09:50:20;100399.00;;;5.90;74.45
63500;BME280;49654;51.142;14.924;2023-02-11T09:52:52;100394.28;;;5.72;75.21
63500;BME280;49654;51.142;14.924;2023-02-11T09:55:23;100389.16;;;5.84;74.88
63500;BME280;49654;51.142;14.924;2023-02-11T09:57:51;100395.06;;;5.97;74.41
63500;BME280;49654;51.142;14.924;2023-02-11T10:00:21;100396.13;;;5.94;74.56
63500;BME280;49654;51.142;14.924;2023-02-11T10:03:12;100387.25;;;6.10;74.23
63500;BME280;49654;51.142;14.924;2023-02-11T10:05:56;100395.81;;;6.21;73.26
63500;BME280;49654;51.142;14.924;2023-02-11T10:08:37;100374.31;;;5.98;73.61
63500;BME280;49654;51.142;14.924;2023-02-11T10:11:11;100387.34;;;5.97;73.75
63500;BME280;49654;51.142;14.924;2023-02-11T10:13:48;100354.47;;;5.88;73.58
63500;BME280;49654;51.142;14.924;2023-02-11T10:16:31;100303.53;;;5.34;74.04
63500;BME280;49654;51.142;14.924;2023-02-11T10:19:12;100375.03;;;6.00;73.12
63500;BME280;49654;51.142;14.924;2023-02-11T10:21:52;100346.63;;;5.89;73.39
63500;BME280;49654;51.142;14.924;2023-02-11T10:24:24;100344.69;;;6.04;73.36
63500;BME280;49654;51.142;14.924;2023-02-11T10:26:52;100376.94;;;6.43;72.22
63500;BME280;49654;51.142;14.924;2023-02-11T10:29:28;100385.00;;;6.50;72.07
63500;BME280;49654;51.142;14.924;2023-02-11T10:31:57;100322.28;;;5.93;71.67
63500;BME280;49654;51.142;14.924;2023-02-11T10:34:25;100401.91;;;6.43;71.34
63500;BME280;49654;51.142;14.924;2023-02-11T10:36:54;100367.28;;;6.12;71.39
63500;BME280;49654;51.142;14.924;2023-02-11T10:39:22;100403.19;;;6.15;72.26
63500;BME280;49654;51.142;14.924;2023-02-11T10:41:52;100416.91;;;6.26;71.82
63500;BME280;49654;51.142;14.924;2023-02-11T10:44:23;100396.75;;;6.32;71.03
63500;BME280;49654;51.142;14.924;2023-02-11T10:46:52;100406.13;;;6.33;71.11
63500;BME280;49654;51.142;14.924;2023-02-11T10:49:36;100366.97;;;6.27;70.92
63500;BME280;49654;51.142;14.924;2023-02-11T10:52:23;100363.19;;;6.20;71.43
63500;BME280;49654;51.142;14.924;2023-02-11T10:55:00;100390.63;;;6.55;71.37
63500;BME280;49654;51.142;14.924;2023-02-11T10:57:30;100385.81;;;6.50;71.05
63500;BME280;49654;51.142;14.924;2023-02-11T11:00:03;100343.97;;;6.36;70.50
63500;BME280;49654;51.142;14.924;2023-02-11T11:02:33;100383.72;;;6.44;70.93
63500;BME280;49654;51.142;14.924;2023-02-11T11:05:05;100382.66;;;6.24;71.31
63500;BME280;49654;51.142;14.924;2023-02-11T11:07:34;100347.72;;;6.20;71.49
63500;BME280;49654;51.142;14.924;2023-02-11T11:10:04;100369.28;;;6.42;70.62
63500;BME280;49654;51.142;14.924;2023-02-11T11:12:35;100367.31;;;6.45;70.82
63500;BME280;49654;51.142;14.924;2023-02-11T11:15:20;100379.63;;;6.42;71.10
63500;BME280;49654;51.142;14.924;2023-02-11T11:17:48;100378.69;;;6.32;71.60
63500;BME280;49654;51.142;14.924;2023-02-11T11:20:20;100378.22;;;6.49;70.71
63500;BME280;49654;51.142;14.924;2023-02-11T11:22:51;100347.72;;;6.32;70.01
63500;BME280;49654;51.142;14.924;2023-02-11T11:25:22;100377.03;;;6.53;69.82
63500;BME280;49654;51.142;14.924;2023-02-11T11:27:52;100366.22;;;6.59;70.03
63500;BME280;49654;51.142;14.924;2023-02-11T11:30:20;100386.41;;;6.65;70.08
63500;BME280;49654;51.142;14.924;2023-02-11T11:32:49;100327.91;;;6.10;70.82
63500;BME280;49654;51.142;14.924;2023-02-11T11:35:23;100354.41;;;6.45;70.21
63500;BME280;49654;51.142;14.924;2023-02-11T11:37:54;100380.19;;;6.68;69.59
63500;BME280;49654;51.142;14.924;2023-02-11T11:40:24;100380.53;;;6.63;69.49
63500;BME280;49654;51.142;14.924;2023-02-11T11:43:05;100373.88;;;6.49;69.80
63500;BME280;49654;51.142;14.924;2023-02-11T11:45:32;100404.94;;;6.59;70.10
63500;BME280;49654;51.142;14.924;2023-02-11T11:48:04;100385.00;;;6.61;69.74
63500;BME280;49654;51.142;14.924;2023-02-11T11:50:36;100354.41;;;6.45;69.98
63500;BME280;49654;51.142;14.924;2023-02-11T11:53:12;100357.59;;;6.26;70.48
63500;BME280;49654;51.142;14.924;2023-02-11T11:55:44;100337.06;;;6.36;69.64
63500;BME280;49654;51.142;14.924;2023-02-11T11:58:15;100403.31;;;6.69;69.71
63500;BME280;49654;51.142;14.924;2023-02-11T12:00:51;100409.53;;;6.67;69.88
63500;BME280;49654;51.142;14.924;2023-02-11T12:03:41;100407.53;;;6.82;69.29
63500;BME280;49654;51.142;14.924;2023-02-11T12:06:23;100404.75;;;6.51;70.09
63500;BME280;49654;51.142;14.924;2023-02-11T12:09:03;100390.03;;;6.63;70.20
63500;BME280;49654;51.142;14.924;2023-02-11T12:11:43;100388.19;;;6.65;69.78
63500;BME280;49654;51.142;14.924;2023-02-11T12:14:22;100378.69;;;6.32;70.56
63500;BME280;49654;51.142;14.924;2023-02-11T12:16:57;100383.59;;;6.46;70.76
63500;BME280;49654;51.142;14.924;2023-02-11T12:19:53;100386.41;;;6.54;71.07
63500;BME280;49654;51.142;14.924;2023-02-11T12:22:35;100382.09;;;6.43;72.09
63500;BME280;49654;51.142;14.924;2023-02-11T12:25:24;100369.56;;;6.39;72.67
63500;BME280;49654;51.142;14.924;2023-02-11T12:28:00;100364.03;;;6.43;72.55
63500;BME280;49654;51.142;14.924;2023-02-11T12:31:04;100368.00;;;6.36;73.07
63500;BME280;49654;51.142;14.924;2023-02-11T12:33:43;100366.25;;;6.48;72.72
63500;BME280;49654;51.142;14.924;2023-02-11T12:36:22;100360.97;;;6.61;72.41
63500;BME280;49654;51.142;14.924;2023-02-11T12:39:09;100358.38;;;6.61;72.36
63500;BME280;49654;51.142;14.924;2023-02-11T12:41:58;100352.03;;;6.42;72.80
63500;BME280;49654;51.142;14.924;2023-02-11T12:44:56;100373.75;;;6.73;72.39
63500;BME280;49654;51.142;14.924;2023-02-11T12:47:31;100366.22;;;6.82;71.90
63500;BME280;49654;51.142;14.924;2023-02-11T12:50:10;100365.03;;;6.74;71.79
63500;BME280;49654;51.142;14.924;2023-02-11T12:53:00;100354.75;;;6.52;73.11
63500;BME280;49654;51.142;14.924;2023-02-11T12:55:33;100373.06;;;6.60;72.82
63500;BME280;49654;51.142;14.924;2023-02-11T12:58:04;100394.16;;;6.65;73.21
63500;BME280;49654;51.142;14.924;2023-02-11T13:00:39;100350.09;;;6.35;74.51
63500;BME280;49654;51.142;14.924;2023-02-11T13:03:11;100381.25;;;6.54;74.96
63500;BME280;49654;51.142;14.924;2023-02-11T13:05:45;100378.69;;;6.43;75.40
63500;BME280;49654;51.142;14.924;2023-02-11T13:08:16;100376.81;;;6.45;75.76